Time;durP1;ratioP1;P1;durP2;ratioP2;P2;SDS_P1;SDS_P2;PMS_P1;PMS_P2;Temp;Humidity;BMP_temperature;BMP_pressure;BME280_temperature;BME280_humidity;BME280_pressure;Samples;Min_cycle;Max_cycle;Signal;HPM_P1;HPM_P2
2022/03/24 00:02:20;;;;;;;10.07;7.80;;;5.50;88.20;;;;;;5018267;28;20214;-57
2022/03/24 00:04:47;;;;;;;11.07;8.50;;;5.50;87.50;;;;;;5018417;28;20608;-57
2022/03/24 00:07:14;;;;;;;12.83;8.70;;;5.50;87.50;;;;;;5018417;28;20253;-57
2022/03/24 00:09:41;;;;;;;13.83;8.63;;;5.40;87.70;;;;;;5018334;28;20207;-57
2022/03/24 00:12:10;;;;;;;12.00;8.57;;;5.30;88.40;;;;;;5018417;28;20214;-57
2022/03/24 00:14:38;;;;;;;11.93;8.70;;;5.10;88.90;;;;;;5018597;28;20226;-57
2022/03/24 00:17:06;;;;;;;11.20;8.37;;;4.90;89.50;;;;;;5018460;28;20305;-57
2022/03/24 00:19:33;;;;;;;13.67;8.80;;;4.80;90.00;;;;;;5018707;28;20587;-57
2022/03/24 00:21:59;;;;;;;11.00;8.50;;;4.80;90.10;;;;;;5018298;28;20214;-57
2022/03/24 00:24:26;;;;;;;10.53;8.00;;;4.80;90.20;;;;;;5018067;28;20234;-58
2022/03/24 00:26:53;;;;;;;13.13;8.93;;;4.70;90.30;;;;;;5018554;28;20210;-57
2022/03/24 00:29:19;;;;;;;10.53;8.23;;;4.70;90.50;;;;;;5018598;28;20207;-58
2022/03/24 00:31:47;;;;;;;17.17;8.40;;;4.70;90.30;;;;;;5018094;28;20640;-57
2022/03/24 00:34:14;;;;;;;10.43;8.73;;;4.70;90.20;;;;;;5018428;28;20211;-57
2022/03/24 00:36:41;;;;;;;10.80;8.40;;;4.80;90.10;;;;;;5018424;28;20621;-57
2022/03/24 00:39:07;;;;;;;10.93;7.93;;;4.80;90.10;;;;;;5018250;28;20211;-57
2022/03/24 00:41:35;;;;;;;10.67;7.73;;;4.90;90.00;;;;;;5018613;28;20215;-57
2022/03/24 00:44:02;;;;;;;11.40;8.73;;;4.90;90.20;;;;;;5018536;28;20215;-57
2022/03/24 00:46:31;;;;;;;13.37;9.10;;;4.90;90.20;;;;;;5018773;28;20293;-57
2022/03/24 00:48:59;;;;;;;11.13;8.00;;;4.80;90.10;;;;;;5016385;28;20306;-57
2022/03/24 00:51:26;;;;;;;13.83;8.70;;;4.70;90.10;;;;;;5015766;28;20652;-57
2022/03/24 00:53:53;;;;;;;16.23;8.90;;;4.80;90.20;;;;;;5016990;28;20245;-58
2022/03/24 00:56:20;;;;;;;11.03;8.63;;;4.80;90.00;;;;;;5017049;28;20223;-58
2022/03/24 00:58:46;;;;;;;10.17;8.30;;;4.80;89.70;;;;;;5016627;28;20202;-57
2022/03/24 01:01:13;;;;;;;12.27;8.80;;;4.90;89.80;;;;;;5015295;28;20203;-58
2022/03/24 01:03:40;;;;;;;12.17;8.00;;;4.90;89.80;;;;;;5015277;28;20209;-58
2022/03/24 01:06:08;;;;;;;12.43;8.23;;;4.90;89.80;;;;;;5014850;28;20238;-58
2022/03/24 01:08:35;;;;;;;10.27;7.80;;;4.90;89.80;;;;;;5015403;28;20210;-58
2022/03/24 01:11:04;;;;;;;13.03;8.10;;;4.90;89.80;;;;;;5015214;28;20269;-58
2022/03/24 01:13:31;;;;;;;13.07;8.17;;;4.90;89.60;;;;;;5015370;28;20211;-57
2022/03/24 01:15:58;;;;;;;11.57;8.37;;;5.00;89.70;;;;;;5015005;28;20262;-57
2022/03/24 01:18:24;;;;;;;10.80;8.30;;;4.90;89.80;;;;;;5015037;28;20210;-58
2022/03/24 01:20:51;;;;;;;11.53;8.33;;;4.90;90.10;;;;;;5014747;28;20260;-57
2022/03/24 01:23:23;;;;;;;12.30;8.40;;;4.80;90.20;;;;;;5014894;28;20207;-57
2022/03/24 01:25:50;;;;;;;10.17;8.23;;;4.90;90.20;;;;;;5014566;28;20238;-57
2022/03/24 01:28:17;;;;;;;13.93;8.93;;;4.80;90.70;;;;;;5014758;28;20210;-58
2022/03/24 01:30:43;;;;;;;12.17;9.20;;;4.90;90.80;;;;;;5014685;28;20215;-57
2022/03/24 01:33:10;;;;;;;10.50;8.20;;;4.90;90.90;;;;;;5014356;28;20211;-58
2022/03/24 01:35:37;;;;;;;11.77;7.83;;;4.90;90.70;;;;;;5014844;28;20231;-58
2022/03/24 01:38:03;;;;;;;13.20;8.90;;;4.90;90.60;;;;;;5015007;28;20215;-58
2022/03/24 01:40:31;;;;;;;10.87;8.37;;;5.00;90.50;;;;;;5014780;28;20257;-58
2022/03/24 01:42:58;;;;;;;10.33;8.63;;;5.00;90.50;;;;;;5014272;28;20210;-58
2022/03/24 01:45:27;;;;;;;11.30;8.47;;;5.00;90.30;;;;;;5014791;28;20227;-57
2022/03/24 01:47:53;;;;;;;11.80;8.20;;;5.00;90.50;;;;;;5014233;28;20207;-57
2022/03/24 01:50:20;;;;;;;12.17;8.77;;;5.10;90.30;;;;;;5015071;28;20206;-58
2022/03/24 01:52:47;;;;;;;19.10;9.77;;;5.00;90.20;;;;;;5014927;28;20209;-57
2022/03/24 01:55:14;;;;;;;11.87;9.40;;;4.90;90.40;;;;;;5014674;28;20731;-58
2022/03/24 01:57:45;;;;;;;17.67;10.27;;;4.80;90.50;;;;;;5014634;28;20207;-58
2022/03/24 02:00:13;;;;;;;11.77;9.33;;;4.70;90.70;;;;;;5014266;28;20207;-58
2022/03/24 02:02:41;;;;;;;14.07;8.57;;;4.70;90.90;;;;;;5014125;28;20653;-58
2022/03/24 02:05:09;;;;;;;11.37;8.37;;;4.50;91.00;;;;;;5014075;28;20261;-59
2022/03/24 02:07:36;;;;;;;11.50;8.93;;;4.50;91.20;;;;;;5014023;28;20265;-58
2022/03/24 02:10:06;;;;;;;11.13;8.67;;;4.50;91.10;;;;;;5014269;28;20207;-58
2022/03/24 02:12:34;;;;;;;11.97;8.50;;;4.50;91.00;;;;;;5013682;28;20265;-58
2022/03/24 02:15:02;;;;;;;12.03;8.73;;;4.50;91.00;;;;;;5013779;28;20227;-58
2022/03/24 02:17:30;;;;;;;11.87;9.10;;;4.50;91.10;;;;;;5014229;28;20591;-58
2022/03/24 02:19:58;;;;;;;14.47;9.17;;;4.40;91.30;;;;;;5014644;28;20214;-57
2022/03/24 02:22:26;;;;;;;12.27;8.87;;;4.30;91.50;;;;;;5014083;28;20211;-58
2022/03/24 02:24:53;;;;;;;11.43;8.50;;;4.20;91.40;;;;;;5013763;28;20231;-58
2022/03/24 02:27:24;;;;;;;12.63;9.03;;;4.10;91.70;;;;;;5013637;28;20218;-58
2022/03/24 02:29:51;;;;;;;11.87;8.73;;;4.10;91.90;;;;;;5013576;28;20671;-57
2022/03/24 02:32:20;;;;;;;14.37;9.37;;;4.00;92.00;;;;;;5013615;28;20215;-57
2022/03/24 02:34:51;;;;;;;10.43;8.63;;;4.00;92.10;;;;;;5013553;28;20313;-57
2022/03/24 02:37:20;;;;;;;10.93;8.53;;;4.00;92.30;;;;;;5013725;28;20664;-58
2022/03/24 02:39:50;;;;;;;12.80;9.00;;;3.90;92.60;;;;;;5013602;28;20207;-57
2022/03/24 02:42:20;;;;;;;11.10;8.73;;;3.70;92.90;;;;;;5013451;28;20207;-58
2022/03/24 02:44:49;;;;;;;11.87;9.00;;;3.60;93.10;;;;;;5013075;28;20741;-57
2022/03/24 02:47:16;;;;;;;12.70;8.87;;;3.60;93.20;;;;;;5013427;28;20230;-57
2022/03/24 02:49:45;;;;;;;13.57;9.03;;;3.70;93.10;;;;;;5013268;28;20215;-57
2022/03/24 02:52:12;;;;;;;13.70;9.40;;;3.80;93.00;;;;;;5013493;28;20210;-57
2022/03/24 02:54:39;;;;;;;11.30;9.13;;;3.90;92.80;;;;;;5013091;28;20317;-58
2022/03/24 02:57:09;;;;;;;11.83;8.50;;;3.90;92.60;;;;;;5013103;28;20230;-57
2022/03/24 02:59:36;;;;;;;11.67;9.17;;;3.90;92.50;;;;;;5013219;28;20299;-57
2022/03/24 03:02:06;;;;;;;12.87;8.57;;;3.90;92.50;;;;;;5012539;28;20760;-57
2022/03/24 03:04:34;;;;;;;10.53;8.30;;;3.90;92.50;;;;;;5012691;28;20237;-57
2022/03/24 03:07:02;;;;;;;11.53;8.47;;;3.90;92.50;;;;;;5012616;28;20233;-57
2022/03/24 03:09:30;;;;;;;13.17;9.57;;;3.90;92.60;;;;;;5013206;28;20309;-57
2022/03/24 03:11:58;;;;;;;11.63;8.80;;;3.90;92.70;;;;;;5012353;28;20203;-57
2022/03/24 03:14:29;;;;;;;11.87;8.93;;;3.80;92.70;;;;;;5012834;28;20223;-57
2022/03/24 03:16:57;;;;;;;11.20;8.77;;;3.80;92.80;;;;;;5013089;28;20257;-57
2022/03/24 03:19:24;;;;;;;11.93;8.93;;;3.80;92.80;;;;;;5012702;28;20211;-57
2022/03/24 03:21:51;;;;;;;13.63;8.50;;;3.80;92.80;;;;;;5012796;28;20203;-56
2022/03/24 03:24:21;;;;;;;13.47;8.77;;;3.90;92.90;;;;;;5013233;28;20231;-57
2022/03/24 03:26:48;;;;;;;11.50;9.13;;;3.90;92.90;;;;;;5012873;28;20237;-58
2022/03/24 03:29:15;;;;;;;13.00;9.53;;;3.90;92.90;;;;;;5012660;28;20230;-57
2022/03/24 03:31:43;;;;;;;13.87;9.70;;;3.90;92.90;;;;;;5012651;28;20202;-57
2022/03/24 03:34:11;;;;;;;12.73;8.93;;;4.00;92.70;;;;;;5012338;28;20213;-57
2022/03/24 03:36:38;;;;;;;12.60;9.20;;;4.00;92.60;;;;;;5012804;28;20215;-57
2022/03/24 03:39:06;;;;;;;10.57;8.00;;;4.10;92.70;;;;;;5012817;28;20207;-57
2022/03/24 03:41:34;;;;;;;10.90;8.23;;;4.10;92.60;;;;;;5012573;28;20234;-57
2022/03/24 03:44:01;;;;;;;13.03;8.30;;;4.10;92.50;;;;;;5012364;28;20209;-57
2022/03/24 03:46:27;;;;;;;13.77;9.13;;;4.10;92.50;;;;;;5012142;28;20227;-58
2022/03/24 03:48:55;;;;;;;12.33;8.57;;;4.10;92.40;;;;;;5012600;28;20218;-57
2022/03/24 03:51:22;;;;;;;17.23;9.40;;;4.10;92.40;;;;;;5012175;28;20219;-57
2022/03/24 03:53:49;;;;;;;13.37;8.80;;;4.10;92.30;;;;;;5012380;28;20265;-57
2022/03/24 03:56:16;;;;;;;13.43;8.77;;;4.10;92.30;;;;;;5012177;28;20249;-57
2022/03/24 03:58:42;;;;;;;11.20;8.67;;;4.10;92.60;;;;;;5012045;28;20210;-58
2022/03/24 04:01:09;;;;;;;11.90;9.37;;;4.10;92.30;;;;;;5011959;28;20207;-58
2022/03/24 04:03:38;;;;;;;13.20;8.97;;;4.10;92.50;;;;;;5012382;28;20214;-58
2022/03/24 04:06:09;;;;;;;11.57;8.83;;;4.00;92.50;;;;;;5011956;28;20238;-58
2022/03/24 04:08:36;;;;;;;12.13;8.87;;;4.00;93.00;;;;;;5012040;28;20297;-58
2022/03/24 04:11:07;;;;;;;10.40;8.63;;;3.90;92.90;;;;;;5011945;28;20275;-58
2022/03/24 04:13:34;;;;;;;15.87;9.43;;;3.90;92.90;;;;;;5012063;28;20211;-57
2022/03/24 04:16:01;;;;;;;16.60;11.70;;;3.90;92.70;;;;;;5012290;28;20318;-58
2022/03/24 04:18:28;;;;;;;18.80;13.10;;;3.90;92.70;;;;;;5012089;28;20206;-58
2022/03/24 04:20:55;;;;;;;13.53;10.70;;;3.90;92.70;;;;;;5011903;28;20257;-58
2022/03/24 04:23:23;;;;;;;19.93;10.43;;;3.90;92.80;;;;;;5011861;28;20203;-59
2022/03/24 04:25:50;;;;;;;14.57;9.97;;;3.90;92.80;;;;;;5015220;28;20282;-57
2022/03/24 04:28:16;;;;;;;12.80;9.80;;;3.80;92.80;;;;;;5015456;28;20261;-58
2022/03/24 04:30:44;;;;;;;13.73;10.23;;;3.80;92.80;;;;;;5015638;28;20679;-58
2022/03/24 04:33:11;;;;;;;13.97;9.90;;;3.70;92.80;;;;;;5015218;28;20206;-57
2022/03/24 04:35:38;;;;;;;14.53;10.13;;;3.80;92.80;;;;;;5015821;28;20255;-57
2022/03/24 04:38:05;;;;;;;13.27;9.67;;;3.80;92.80;;;;;;5015559;28;20272;-57
2022/03/24 04:40:33;;;;;;;15.80;9.77;;;3.80;92.80;;;;;;5015361;28;20214;-57
2022/03/24 04:43:00;;;;;;;13.87;11.27;;;3.90;92.80;;;;;;5015002;28;20219;-57
2022/03/24 04:45:29;;;;;;;16.83;10.13;;;3.80;92.80;;;;;;5015345;28;20238;-57
2022/03/24 04:47:56;;;;;;;13.47;9.73;;;3.70;93.00;;;;;;5015532;28;20218;-58
2022/03/24 04:50:23;;;;;;;12.97;9.90;;;3.60;93.10;;;;;;5015181;28;20214;-57
2022/03/24 04:52:51;;;;;;;16.33;10.43;;;3.50;93.30;;;;;;5015099;28;20799;-57
2022/03/24 04:55:18;;;;;;;13.13;9.77;;;3.40;93.40;;;;;;5014964;28;20231;-58
2022/03/24 04:57:46;;;;;;;12.70;9.43;;;3.40;93.50;;;;;;5015401;28;20626;-58
2022/03/24 05:00:16;;;;;;;15.07;10.80;;;3.40;93.60;;;;;;5015390;28;20216;-57
2022/03/24 05:02:42;;;;;;;12.97;9.97;;;3.30;93.70;;;;;;5015273;28;20242;-57
2022/03/24 05:05:10;;;;;;;11.40;9.27;;;3.20;93.90;;;;;;5015351;28;20226;-57
2022/03/24 05:07:37;;;;;;;15.67;10.50;;;3.20;94.10;;;;;;5015346;28;20803;-57
2022/03/24 05:10:05;;;;;;;16.73;11.53;;;3.20;94.10;;;;;;5015377;28;20307;-57
2022/03/24 05:12:32;;;;;;;13.70;10.20;;;3.20;94.10;;;;;;5015054;28;20211;-57
2022/03/24 05:15:00;;;;;;;15.77;10.43;;;3.20;94.10;;;;;;5015523;28;20227;-57
2022/03/24 05:17:27;;;;;;;17.70;15.80;;;3.20;94.20;;;;;;5014872;28;20207;-57
2022/03/24 05:19:53;;;;;;;28.60;19.53;;;3.20;94.30;;;;;;5014665;28;20206;-58
2022/03/24 05:22:20;;;;;;;19.63;14.03;;;3.10;94.30;;;;;;5014337;28;20202;-58
2022/03/24 05:24:47;;;;;;;25.23;15.17;;;3.10;94.40;;;;;;5014809;28;20230;-58
2022/03/24 05:27:14;;;;;;;23.70;15.83;;;3.00;94.40;;;;;;5014446;28;20707;-57
2022/03/24 05:29:41;;;;;;;20.50;14.07;;;3.10;94.70;;;;;;5014539;28;20682;-58
2022/03/24 05:32:10;;;;;;;13.73;10.40;;;3.00;94.40;;;;;;5014380;28;20218;-58
2022/03/24 05:34:36;;;;;;;18.03;11.67;;;3.00;94.50;;;;;;5014090;28;20715;-58
2022/03/24 05:37:03;;;;;;;15.27;9.87;;;3.10;94.60;;;;;;5014196;28;20211;-58
2022/03/24 05:39:30;;;;;;;15.57;10.63;;;3.10;94.60;;;;;;5014716;28;20216;-58
2022/03/24 05:41:58;;;;;;;24.23;15.37;;;3.20;94.60;;;;;;5014086;28;20638;-58
2022/03/24 05:44:25;;;;;;;34.67;17.57;;;3.20;94.50;;;;;;5013890;28;20235;-59
2022/03/24 05:46:52;;;;;;;25.07;14.07;;;3.30;94.50;;;;;;5014537;28;20273;-57
2022/03/24 05:49:21;;;;;;;20.57;13.03;;;3.30;94.40;;;;;;5014303;28;20219;-58
2022/03/24 05:51:48;;;;;;;23.87;13.43;;;3.40;94.30;;;;;;5014537;28;20303;-63
2022/03/24 05:54:17;;;;;;;43.70;21.67;;;3.50;94.20;;;;;;5014807;28;20207;-58
2022/03/24 05:56:44;;;;;;;18.90;12.00;;;3.60;94.10;;;;;;5014522;28;20242;-58
2022/03/24 05:59:11;;;;;;;20.60;12.80;;;3.70;94.00;;;;;;5014054;28;20256;-58
2022/03/24 06:01:39;;;;;;;15.50;11.03;;;3.80;93.80;;;;;;5014047;28;20215;-58
2022/03/24 06:04:06;;;;;;;17.60;11.17;;;3.90;93.60;;;;;;5014165;28;20234;-58
2022/03/24 06:06:37;;;;;;;19.80;15.13;;;4.00;93.50;;;;;;5014618;28;20223;-57
2022/03/24 06:09:06;;;;;;;26.33;19.43;;;4.20;93.60;;;;;;5014556;28;20211;-58
2022/03/24 06:11:35;;;;;;;15.83;10.40;;;4.30;93.20;;;;;;5013942;28;20709;-57
2022/03/24 06:14:02;;;;;;;21.57;13.57;;;4.50;93.00;;;;;;5013619;28;20206;-57
2022/03/24 06:16:28;;;;;;;14.73;11.07;;;4.60;92.80;;;;;;5013788;28;20207;-58
2022/03/24 06:18:56;;;;;;;16.37;10.87;;;4.80;92.50;;;;;;5013955;28;20206;-58
2022/03/24 06:21:23;;;;;;;13.40;10.70;;;4.80;92.30;;;;;;5014490;28;20242;-57
2022/03/24 06:23:51;;;;;;;21.47;16.40;;;5.00;92.70;;;;;;5013524;28;20656;-57
2022/03/24 06:26:20;;;;;;;12.60;10.47;;;6.00;92.60;;;;;;5013315;28;20638;-58
2022/03/24 06:28:48;;;;;;;18.73;11.93;;;7.40;91.40;;;;;;5013293;28;20267;-57
2022/03/24 06:31:15;;;;;;;44.20;30.77;;;8.90;86.50;;;;;;5013198;28;20207;-58
2022/03/24 06:33:41;;;;;;;35.20;23.60;;;10.20;82.70;;;;;;5013236;28;20210;-58
2022/03/24 06:36:09;;;;;;;16.53;11.33;;;11.30;78.70;;;;;;5013148;28;20273;-59
2022/03/24 06:38:36;;;;;;;17.30;10.83;;;12.20;75.20;;;;;;5013137;28;20298;-58
2022/03/24 06:41:05;;;;;;;14.53;10.50;;;13.20;73.10;;;;;;5013186;28;20217;-59
2022/03/24 06:43:31;;;;;;;13.80;9.90;;;14.20;71.10;;;;;;5012545;28;20207;-58
2022/03/24 06:45:58;;;;;;;17.33;10.67;;;15.10;66.80;;;;;;5012445;28;20239;-59
2022/03/24 06:48:25;;;;;;;18.43;11.07;;;15.90;65.50;;;;;;5012053;28;20211;-59
2022/03/24 06:50:51;;;;;;;17.33;11.43;;;16.80;63.60;;;;;;5012962;28;20207;-59
2022/03/24 06:53:18;;;;;;;11.05;9.93;;;17.60;61.10;;;;;;5012544;28;20557;-60
2022/03/24 06:55:45;;;;;;;15.27;10.15;;;18.10;58.00;;;;;;5012822;28;20262;-60
2022/03/24 06:58:13;;;;;;;14.15;11.82;;;18.40;57.50;;;;;;5013043;28;20207;-60
2022/03/24 07:00:40;;;;;;;14.02;11.00;;;18.90;57.00;;;;;;5013399;28;20222;-61
2022/03/24 07:03:07;;;;;;;14.02;10.05;;;19.70;55.40;;;;;;5013109;28;20241;-61
2022/03/24 07:05:33;;;;;;;16.90;10.45;;;20.60;53.70;;;;;;5013316;28;20581;-60
2022/03/24 07:08:02;;;;;;;14.85;10.30;;;21.20;51.50;;;;;;5012870;28;20227;-61
2022/03/24 07:10:29;;;;;;;13.43;10.80;;;21.70;50.80;;;;;;5013803;28;20206;-60
2022/03/24 07:12:55;;;;;;;14.88;10.65;;;22.10;49.40;;;;;;5013080;28;20211;-61
2022/03/24 07:15:25;;;;;;;12.45;10.52;;;21.80;49.30;;;;;;5014208;28;20231;-60
2022/03/24 07:17:52;;;;;;;13.10;10.75;;;20.60;51.10;;;;;;5013857;28;20703;-62
2022/03/24 07:20:19;;;;;;;13.43;9.75;;;20.50;52.00;;;;;;5013810;28;20211;-63
2022/03/24 07:22:46;;;;;;;17.58;10.93;;;20.60;51.80;;;;;;5013006;28;20264;-62
2022/03/24 07:25:14;;;;;;;13.55;10.43;;;20.80;50.80;;;;;;5014250;28;20227;-63
2022/03/24 07:27:42;;;;;;;13.23;10.48;;;20.70;51.50;;;;;;5015626;28;20233;-62
2022/03/24 07:30:10;;;;;;;12.00;10.80;;;21.10;51.20;;;;;;5013897;28;20241;-62
2022/03/24 07:32:38;;;;;;;12.48;10.60;;;21.30;51.30;;;;;;5013573;28;20214;-60
2022/03/24 07:35:07;;;;;;;15.75;11.05;;;21.60;50.80;;;;;;5013343;28;20231;-60
2022/03/24 07:37:34;;;;;;;16.08;10.90;;;22.00;50.40;;;;;;5013206;28;20202;-61
2022/03/24 07:40:01;;;;;;;13.10;10.52;;;22.40;49.70;;;;;;5013157;28;20232;-61
2022/03/24 07:42:28;;;;;;;13.05;10.65;;;22.50;49.40;;;;;;5012872;28;20268;-61
2022/03/24 07:44:55;;;;;;;14.90;10.63;;;23.00;48.60;;;;;;5013001;28;20239;-61
2022/03/24 07:47:22;;;;;;;11.90;10.57;;;22.90;49.20;;;;;;5012923;28;20317;-61
2022/03/24 07:49:51;;;;;;;16.15;11.15;;;23.00;48.60;;;;;;5013138;28;20663;-60
2022/03/24 07:52:17;;;;;;;14.65;11.10;;;23.00;47.90;;;;;;5012710;28;20210;-60
2022/03/24 07:54:58;;;;;;;17.08;12.15;;;22.00;49.20;;;;;;5012948;28;20261;-60
2022/03/24 07:57:25;;;;;;;13.82;11.15;;;21.30;50.20;;;;;;5012945;28;20234;-60
2022/03/24 07:59:52;;;;;;;16.10;12.30;;;21.50;50.10;;;;;;5016462;28;20227;-60
2022/03/24 08:02:19;;;;;;;14.60;11.50;;;21.90;49.30;;;;;;5017055;28;20211;-61
2022/03/24 08:04:46;;;;;;;13.18;11.27;;;21.50;49.60;;;;;;5016802;28;20231;-63
2022/03/24 08:07:14;;;;;;;15.15;11.15;;;20.60;50.50;;;;;;5016458;28;20706;-61
2022/03/24 08:09:41;;;;;;;14.75;11.65;;;19.60;51.20;;;;;;5017422;28;20210;-62
2022/03/24 08:12:09;;;;;;;16.88;12.50;;;18.80;53.10;;;;;;5017358;28;20226;-60
2022/03/24 08:14:36;;;;;;;20.25;11.80;;;17.90;53.40;;;;;;5017114;28;20227;-60
2022/03/24 08:17:03;;;;;;;17.10;12.63;;;17.10;54.70;;;;;;5017072;28;20211;-60
2022/03/24 08:19:30;;;;;;;18.10;13.20;;;16.50;56.10;;;;;;5016496;28;20207;-61
2022/03/24 08:21:57;;;;;;;18.38;12.38;;;16.00;56.80;;;;;;5016766;28;20211;-60
2022/03/24 08:24:25;;;;;;;15.07;11.68;;;15.60;58.10;;;;;;5016925;28;20230;-59
2022/03/24 08:26:52;;;;;;;18.67;13.23;;;14.80;59.80;;;;;;5016184;28;20229;-60
2022/03/24 08:29:18;;;;;;;16.37;13.50;;;14.10;61.00;;;;;;5016523;28;20246;-60
2022/03/24 08:31:47;;;;;;;14.07;12.00;;;13.50;62.80;;;;;;5016038;28;20211;-60
2022/03/24 08:34:14;;;;;;;19.70;13.37;;;13.10;64.30;;;;;;5016099;28;20585;-60
2022/03/24 08:36:41;;;;;;;18.50;13.43;;;12.90;64.50;;;;;;5015754;28;20289;-60
2022/03/24 08:39:08;;;;;;;19.17;13.53;;;12.90;64.80;;;;;;5015955;28;20207;-60
2022/03/24 08:41:36;;;;;;;21.03;15.00;;;12.80;65.60;;;;;;5015478;28;20261;-60
2022/03/24 08:44:03;;;;;;;18.70;13.23;;;13.00;66.00;;;;;;5015330;28;20211;-59
2022/03/24 08:46:31;;;;;;;18.90;13.97;;;12.90;63.60;;;;;;5015670;28;20705;-60
2022/03/24 08:48:58;;;;;;;16.80;13.13;;;12.80;64.50;;;;;;5015948;28;20231;-60
2022/03/24 08:51:27;;;;;;;19.63;13.97;;;12.90;65.20;;;;;;5016059;28;20210;-60
2022/03/24 08:53:53;;;;;;;18.40;13.73;;;12.90;65.10;;;;;;5015818;28;20207;-60
2022/03/24 08:56:20;;;;;;;20.10;13.90;;;12.90;64.40;;;;;;5015997;28;20741;-59
2022/03/24 08:58:49;;;;;;;19.67;13.70;;;12.90;65.30;;;;;;5015638;28;20217;-59
2022/03/24 09:01:15;;;;;;;17.53;13.40;;;13.20;65.10;;;;;;5015701;28;20218;-59
2022/03/24 09:03:42;;;;;;;19.60;14.77;;;13.40;64.70;;;;;;5015354;28;20289;-59
2022/03/24 09:06:09;;;;;;;16.07;13.43;;;13.60;63.40;;;;;;5015509;28;20230;-61
2022/03/24 09:08:36;;;;;;;23.07;14.93;;;13.70;63.00;;;;;;5016092;28;20321;-59
2022/03/24 09:11:03;;;;;;;21.37;14.70;;;13.90;63.20;;;;;;5014704;28;20223;-59
2022/03/24 09:13:30;;;;;;;21.43;14.83;;;14.10;62.40;;;;;;5015199;28;20261;-60
2022/03/24 09:15:58;;;;;;;21.10;14.17;;;14.10;62.20;;;;;;5015727;28;20233;-59
2022/03/24 09:18:25;;;;;;;19.83;14.80;;;14.20;63.50;;;;;;5016010;28;20210;-59
2022/03/24 09:20:51;;;;;;;19.03;14.97;;;14.40;64.10;;;;;;5015749;28;20207;-59
2022/03/24 09:23:18;;;;;;;20.20;16.23;;;14.40;64.40;;;;;;5015720;28;20215;-60
2022/03/24 09:25:45;;;;;;;19.37;14.93;;;14.50;64.70;;;;;;5015683;28;20226;-59
2022/03/24 09:28:12;;;;;;;21.47;15.40;;;14.60;65.90;;;;;;5015393;28;20590;-61
2022/03/24 09:30:40;;;;;;;19.53;14.70;;;14.70;63.50;;;;;;5015771;28;20215;-60
2022/03/24 09:33:09;;;;;;;22.33;16.37;;;14.70;63.40;;;;;;5015184;28;20219;-61
2022/03/24 09:35:36;;;;;;;24.80;16.67;;;14.80;64.60;;;;;;5015420;28;20292;-60
2022/03/24 09:38:03;;;;;;;24.40;16.50;;;15.00;62.90;;;;;;5015191;28;20218;-61
2022/03/24 09:40:30;;;;;;;19.73;15.37;;;15.10;63.30;;;;;;5015397;28;20253;-60
2022/03/24 09:42:57;;;;;;;19.40;15.20;;;15.20;63.00;;;;;;5015579;28;20211;-60
2022/03/24 09:45:26;;;;;;;21.40;15.40;;;15.40;60.70;;;;;;5015613;28;20652;-60
2022/03/24 09:47:52;;;;;;;22.13;15.23;;;15.60;59.90;;;;;;5016082;28;20223;-60
2022/03/24 09:50:24;;;;;;;18.27;14.23;;;15.70;59.30;;;;;;5015389;28;20207;-60
2022/03/24 09:52:52;;;;;;;15.63;13.93;;;15.80;58.50;;;;;;5015114;28;20234;-61
2022/03/24 09:55:19;;;;;;;18.67;14.63;;;16.00;55.60;;;;;;5014875;28;20717;-60
2022/03/24 09:57:47;;;;;;;18.83;14.87;;;16.10;57.40;;;;;;5015258;28;20210;-63
2022/03/24 10:00:16;;;;;;;17.80;14.17;;;16.20;56.90;;;;;;5007433;28;20220;-58
2022/03/24 10:02:43;;;;;;;20.63;14.50;;;16.20;57.00;;;;;;4993952;28;20204;-58
2022/03/24 10:05:18;;;;;;;18.23;13.80;;;16.10;56.70;;;;;;4994841;28;20231;-64
2022/03/24 10:07:47;;;;;;;21.47;14.57;;;16.30;55.30;;;;;;4994989;28;20289;-59
2022/03/24 10:10:25;;;;;;;17.07;13.47;;;16.60;54.70;;;;;;4995093;28;20231;-60
2022/03/24 10:12:52;;;;;;;21.67;14.37;;;16.70;54.40;;;;;;4994699;28;20668;-60
2022/03/24 10:15:19;;;;;;;17.00;15.20;;;17.00;54.00;;;;;;4994752;28;20231;-59
2022/03/24 10:17:51;;;;;;;17.23;14.47;;;16.90;53.90;;;;;;4994832;28;20203;-60
2022/03/24 10:20:18;;;;;;;17.65;14.35;;;16.80;54.40;;;;;;4994609;28;20298;-60
2022/03/24 10:22:55;;;;;;;19.17;13.27;;;16.90;54.40;;;;;;4994934;28;20266;-59
2022/03/24 10:25:24;;;;;;;19.43;13.80;;;17.20;53.80;;;;;;4994696;28;20696;-59
2022/03/24 10:27:51;;;;;;;15.43;12.57;;;17.40;52.70;;;;;;4994546;28;20275;-60
2022/03/24 10:30:18;;;;;;;17.70;13.63;;;17.60;51.70;;;;;;4994448;28;20216;-59
2022/03/24 10:32:55;;;;;;;16.15;13.88;;;17.90;50.80;;;;;;4993511;28;20216;-60
2022/03/24 10:35:22;;;;;;;19.25;13.48;;;18.00;50.80;;;;;;4994944;28;20254;-60
2022/03/24 10:37:50;;;;;;;18.42;13.90;;;18.10;50.40;;;;;;4994752;28;20684;-60
2022/03/24 10:40:19;;;;;;;16.25;13.05;;;18.20;50.40;;;;;;4994080;28;20211;-60
2022/03/24 10:42:46;;;;;;;18.05;13.18;;;18.30;49.00;;;;;;4993941;28;20215;-59
2022/03/24 10:45:17;;;;;;;17.63;13.00;;;18.00;49.60;;;;;;4994490;28;20605;-62
2022/03/24 10:47:47;;;;;;;15.75;13.10;;;17.90;50.30;;;;;;4994407;28;20231;-60
2022/03/24 10:50:41;;;;;;;16.77;13.77;;;18.00;49.90;;;;;;4994324;28;20274;-59
2022/03/24 10:53:11;;;;;;;15.63;12.93;;;18.00;50.10;;;;;;4970450;28;20568;-62
2022/03/24 10:56:00;;;;;;;16.67;13.23;;;18.30;49.70;;;;;;4994666;28;20290;-60
2022/03/24 10:58:32;;;;;;;16.08;12.80;;;18.50;49.00;;;;;;4994460;28;20207;-61
2022/03/24 11:01:01;;;;;;;16.88;13.55;;;18.70;48.70;;;;;;4994577;28;20254;-60
2022/03/24 11:03:28;;;;;;;14.73;13.13;;;18.80;48.50;;;;;;4994144;28;20691;-60
2022/03/24 11:06:05;;;;;;;15.55;13.50;;;18.90;49.20;;;;;;4994348;28;20228;-61
2022/03/24 11:08:33;;;;;;;16.63;12.77;;;19.00;48.50;;;;;;4994670;28;20230;-60
2022/03/24 11:11:05;;;;;;;18.40;14.00;;;19.10;48.90;;;;;;4994355;28;20745;-60
2022/03/24 11:13:46;;;;;;;19.35;15.32;;;19.20;48.80;;;;;;4994003;28;20207;-60
2022/03/24 11:16:13;;;;;;;17.77;14.35;;;19.30;48.50;;;;;;4993938;28;20231;-61
2022/03/24 11:18:41;;;;;;;20.83;14.10;;;19.30;48.80;;;;;;4994058;28;20274;-61
2022/03/24 11:21:13;;;;;;;18.58;13.95;;;19.50;48.80;;;;;;4994878;28;20203;-60
2022/03/24 11:23:40;;;;;;;16.23;13.30;;;19.50;48.20;;;;;;4993897;28;20637;-60
2022/03/24 11:26:09;;;;;;;17.60;13.50;;;19.60;47.50;;;;;;4995352;28;20227;-60
2022/03/24 11:28:38;;;;;;;22.33;14.65;;;19.60;48.20;;;;;;4995068;28;20219;-61
2022/03/24 11:31:08;;;;;;;15.57;13.25;;;19.70;48.20;;;;;;4994910;28;20269;-60
2022/03/24 11:33:46;;;;;;;15.80;13.65;;;19.70;47.70;;;;;;4994006;28;20257;-61
2022/03/24 11:36:14;;;;;;;16.17;13.05;;;19.70;46.20;;;;;;4994470;28;20254;-61
2022/03/24 11:38:42;;;;;;;16.90;13.02;;;19.60;46.00;;;;;;4994565;28;20208;-61
2022/03/24 11:41:16;;;;;;;16.48;12.80;;;19.50;45.90;;;;;;4994365;28;20223;-60
2022/03/24 11:43:47;;;;;;;16.73;13.48;;;19.50;46.30;;;;;;4994958;28;20667;-60
2022/03/24 11:46:27;;;;;;;17.10;12.75;;;19.70;48.30;;;;;;4995451;28;20239;-60
2022/03/24 11:49:13;;;;;;;14.43;12.82;;;19.90;46.30;;;;;;4994699;28;20254;-60
2022/03/24 11:51:40;;;;;;;16.67;13.85;;;19.80;45.80;;;;;;4994619;28;20211;-60
2022/03/24 11:54:09;;;;;;;17.83;12.90;;;19.60;45.80;;;;;;4994031;28;20589;-60
2022/03/24 11:56:37;;;;;;;18.00;13.98;;;19.70;45.80;;;;;;4994134;28;20672;-60
2022/03/24 11:59:21;;;;;;;15.38;13.40;;;19.90;45.80;;;;;;4994513;28;20215;-59
2022/03/24 12:01:48;;;;;;;19.23;14.05;;;20.00;45.90;;;;;;4994010;28;20207;-60
2022/03/24 12:04:16;;;;;;;17.27;14.23;;;20.00;46.60;;;;;;4993394;28;20680;-60
2022/03/24 12:06:54;;;;;;;19.42;13.57;;;19.90;46.60;;;;;;4993323;28;20211;-60
2022/03/24 12:09:25;;;;;;;18.45;13.38;;;19.90;46.70;;;;;;4993203;28;20684;-60
2022/03/24 12:12:07;;;;;;;15.45;13.55;;;20.10;47.30;;;;;;4993592;28;20567;-59
2022/03/24 12:14:39;;;;;;;19.33;14.30;;;20.30;47.20;;;;;;4992867;28;20660;-60
2022/03/24 12:17:16;;;;;;;15.70;13.48;;;20.50;46.40;;;;;;4993232;28;20212;-59
2022/03/24 12:19:47;;;;;;;15.50;13.48;;;20.50;46.00;;;;;;4993204;28;20203;-60
2022/03/24 12:22:47;;;;;;;17.35;13.93;;;20.30;46.00;;;;;;4993576;28;20212;-60
2022/03/24 12:25:26;;;;;;;15.25;13.45;;;20.30;46.70;;;;;;4993477;28;20238;-60
2022/03/24 12:28:04;;;;;;;16.98;12.70;;;20.50;46.40;;;;;;4994101;28;20239;-61
2022/03/24 12:30:43;;;;;;;17.95;13.32;;;20.70;46.10;;;;;;4994126;28;20250;-61
2022/03/24 12:33:13;;;;;;;18.60;13.88;;;20.60;45.90;;;;;;4993572;28;20215;-63
2022/03/24 12:35:45;;;;;;;18.92;12.80;;;20.50;46.00;;;;;;4993280;28;20224;-60
2022/03/24 12:38:43;;;;;;;15.43;12.80;;;20.40;46.30;;;;;;4993900;28;20206;-60
2022/03/24 12:41:26;;;;;;;15.45;12.77;;;20.30;46.60;;;;;;4993372;28;20586;-61
2022/03/24 12:44:06;;;;;;;17.20;13.45;;;20.30;45.90;;;;;;4993068;28;20204;-63